Time;durP1;ratioP1;P1;durP2;ratioP2;P2;SDS_P1;SDS_P2;PMS_P1;PMS_P2;Temp;Humidity;BMP_temperature;BMP_pressure;BME280_temperature;BME280_humidity;BME280_pressure;Samples;Min_cycle;Max_cycle;Signal;HPM_P1;HPM_P2
2022/01/03 00:01:20;;;;;;;;;;;22.70;44.40;;;;;;1527247;75;1936;-66
2022/01/03 00:03:22;;;;;;;;;;;22.70;44.40;;;;;;1535581;75;727;-66
2022/01/03 00:05:24;;;;;;;;;;;22.80;44.50;;;;;;1532391;75;1161;-66
2022/01/03 00:07:26;;;;;;;;;;;22.70;44.50;;;;;;1533500;75;763;-66
2022/01/03 00:09:28;;;;;;;;;;;22.70;44.70;;;;;;1540839;75;748;-65
2022/01/03 00:11:30;;;;;;;;;;;22.60;44.60;;;;;;1527306;75;709;-66
2022/01/03 00:13:32;;;;;;;;;;;22.70;44.70;;;;;;1535172;75;786;-65
2022/01/03 00:15:34;;;;;;;;;;;22.60;44.70;;;;;;1539289;75;1148;-66
2022/01/03 00:17:36;;;;;;;;;;;22.60;44.70;;;;;;1536174;75;673;-65
2022/01/03 00:19:37;;;;;;;;;;;22.70;44.90;;;;;;1536537;75;810;-66
2022/01/03 00:21:46;;;;;;;;;;;22.60;44.80;;;;;;1530921;75;1940;-67
2022/01/03 00:23:52;;;;;;;;;;;22.70;44.90;;;;;;1535137;75;771;-68
2022/01/03 00:25:55;;;;;;;;;;;22.60;44.90;;;;;;1538900;75;763;-69
2022/01/03 00:28:14;;;;;;;;;;;22.70;45.10;;;;;;1535470;75;691;-68
2022/01/03 00:30:19;;;;;;;;;;;22.60;45.00;;;;;;1531952;75;807;-68
2022/01/03 00:32:20;;;;;;;;;;;22.70;45.20;;;;;;1542278;75;1661;-67
2022/01/03 00:34:22;;;;;;;;;;;22.70;45.20;;;;;;1541533;75;1144;-67
2022/01/03 00:36:24;;;;;;;;;;;22.70;45.20;;;;;;1538991;75;807;-67
2022/01/03 00:38:29;;;;;;;;;;;22.70;45.20;;;;;;1532358;75;781;-67
2022/01/03 00:40:31;;;;;;;;;;;22.70;45.20;;;;;;1537783;75;771;-68
2022/01/03 00:42:33;;;;;;;;;;;22.70;45.20;;;;;;1540193;75;1931;-69
2022/01/03 00:44:34;;;;;;;;;;;22.70;45.20;;;;;;1540417;76;1142;-67
2022/01/03 00:46:36;;;;;;;;;;;22.70;45.30;;;;;;1571200;75;756;-66
2022/01/03 00:48:38;;;;;;;;;;;22.70;45.20;;;;;;1561819;75;729;-67
2022/01/03 00:50:40;;;;;;;;;;;22.70;45.30;;;;;;1545516;77;794;-67
2022/01/03 00:52:42;;;;;;;;;;;22.70;45.30;;;;;;1545520;77;765;-68
2022/01/03 00:54:44;;;;;;;;;;;22.80;45.30;;;;;;1545303;77;1126;-67
2022/01/03 00:56:47;;;;;;;;;;;22.80;45.40;;;;;;1545450;77;678;-68
2022/01/03 00:58:53;;;;;;;;;;;22.70;45.30;;;;;;1544762;77;794;-67
2022/01/03 01:00:55;;;;;;;;;;;22.70;45.40;;;;;;1544428;77;2038;-67
2022/01/03 01:02:59;;;;;;;;;;;22.70;45.30;;;;;;1545388;77;1931;-67
2022/01/03 01:05:00;;;;;;;;;;;22.70;45.30;;;;;;1545016;77;1720;-67
2022/01/03 01:07:04;;;;;;;;;;;22.70;45.40;;;;;;1544923;76;736;-68
2022/01/03 01:09:07;;;;;;;;;;;22.70;45.40;;;;;;1545402;77;1005;-67
2022/01/03 01:11:09;;;;;;;;;;;22.70;45.30;;;;;;1545417;77;876;-68
2022/01/03 01:13:11;;;;;;;;;;;22.80;45.30;;;;;;1565744;75;827;-67
2022/01/03 01:15:14;;;;;;;;;;;22.80;45.40;;;;;;1570371;75;1165;-68
2022/01/03 01:17:16;;;;;;;;;;;22.80;45.40;;;;;;1545432;77;788;-67
2022/01/03 01:19:18;;;;;;;;;;;22.70;45.30;;;;;;1544948;77;710;-68
2022/01/03 01:21:20;;;;;;;;;;;22.80;45.30;;;;;;1545306;77;769;-67
2022/01/03 01:23:22;;;;;;;;;;;22.70;45.30;;;;;;1545419;77;1937;-67
2022/01/03 01:27:45;;;;;;;;;;;22.80;45.40;;;;;;1545230;77;1147;-68
2022/01/03 01:29:47;;;;;;;;;;;22.80;45.30;;;;;;1545399;77;717;-67
2022/01/03 01:31:50;;;;;;;;;;;22.80;45.30;;;;;;1540891;75;678;-68
2022/01/03 01:33:53;;;;;;;;;;;22.80;45.40;;;;;;1539922;77;1129;-67
2022/01/03 01:35:56;;;;;;;;;;;22.80;45.30;;;;;;1539669;77;730;-68
2022/01/03 01:37:57;;;;;;;;;;;22.80;45.30;;;;;;1543944;77;574;-68
2022/01/03 01:39:59;;;;;;;;;;;22.80;45.30;;;;;;1545473;77;725;-68
2022/01/03 01:42:02;;;;;;;;;;;22.80;45.20;;;;;;1545372;77;1973;-68
2022/01/03 01:44:06;;;;;;;;;;;22.80;45.20;;;;;;1545391;77;1127;-68
2022/01/03 01:46:09;;;;;;;;;;;22.70;45.30;;;;;;1544645;77;783;-68
2022/01/03 01:48:12;;;;;;;;;;;22.80;45.20;;;;;;1544876;77;754;-68
2022/01/03 01:50:14;;;;;;;;;;;22.70;45.20;;;;;;1545377;77;796;-68
2022/01/03 01:52:17;;;;;;;;;;;22.80;45.20;;;;;;1545377;77;780;-69
2022/01/03 01:54:19;;;;;;;;;;;22.80;45.20;;;;;;1545395;76;1087;-68
2022/01/03 01:56:25;;;;;;;;;;;22.80;45.20;;;;;;1545318;77;733;-68
2022/01/03 01:58:29;;;;;;;;;;;22.90;45.40;;;;;;1544594;77;802;-68
2022/01/03 02:00:31;;;;;;;;;;;22.80;45.30;;;;;;1545412;77;758;-68
2022/01/03 02:02:37;;;;;;;;;;;22.80;45.20;;;;;;1545226;77;1929;-67
2022/01/03 02:04:44;;;;;;;;;;;22.90;45.40;;;;;;1545289;77;1139;-68
2022/01/03 02:06:46;;;;;;;;;;;22.90;45.40;;;;;;1544159;77;779;-68
2022/01/03 02:08:53;;;;;;;;;;;22.80;45.30;;;;;;1544160;77;786;-70
2022/01/03 02:11:11;;;;;;;;;;;22.80;45.20;;;;;;1539288;77;1795;-69
2022/01/03 02:13:15;;;;;;;;;;;22.70;45.30;;;;;;1540477;77;1781;-68
2022/01/03 02:15:18;;;;;;;;;;;22.70;45.30;;;;;;1544950;77;1158;-68
2022/01/03 02:17:20;;;;;;;;;;;22.80;45.20;;;;;;1545301;77;736;-67
2022/01/03 02:19:21;;;;;;;;;;;22.80;45.20;;;;;;1544917;77;756;-68
2022/01/03 02:21:23;;;;;;;;;;;22.90;45.40;;;;;;1545421;77;785;-68
2022/01/03 02:23:25;;;;;;;;;;;22.70;45.20;;;;;;1545327;77;1945;-69
2022/01/03 02:25:27;;;;;;;;;;;22.80;45.20;;;;;;1545279;77;1118;-68
2022/01/03 02:27:29;;;;;;;;;;;22.70;45.20;;;;;;1544793;77;776;-67
2022/01/03 02:29:31;;;;;;;;;;;22.70;45.30;;;;;;1536610;75;736;-66
2022/01/03 02:31:33;;;;;;;;;;;22.80;45.30;;;;;;1539621;75;825;-67
2022/01/03 02:33:35;;;;;;;;;;;22.90;45.50;;;;;;1539822;75;752;-68
2022/01/03 02:35:38;;;;;;;;;;;22.80;45.30;;;;;;1539738;75;1174;-67
2022/01/03 02:37:40;;;;;;;;;;;22.70;45.30;;;;;;1539868;77;738;-68
2022/01/03 02:39:42;;;;;;;;;;;22.80;45.40;;;;;;1542847;77;715;-66
2022/01/03 02:41:44;;;;;;;;;;;22.80;45.40;;;;;;1545387;77;731;-66
2022/01/03 02:43:46;;;;;;;;;;;22.80;45.50;;;;;;1545245;77;1929;-67
2022/01/03 02:45:48;;;;;;;;;;;22.80;45.50;;;;;;1545345;77;1153;-67
2022/01/03 02:47:51;;;;;;;;;;;22.80;45.50;;;;;;1545033;77;772;-67
2022/01/03 02:49:53;;;;;;;;;;;22.80;45.50;;;;;;1544773;77;639;-66
2022/01/03 02:51:54;;;;;;;;;;;22.80;45.50;;;;;;1545582;77;704;-67
2022/01/03 02:53:56;;;;;;;;;;;22.80;45.50;;;;;;1545309;77;1142;-67
2022/01/03 02:55:58;;;;;;;;;;;22.80;45.50;;;;;;1545425;77;733;-66
2022/01/03 02:58:06;;;;;;;;;;;22.90;45.70;;;;;;1544926;77;701;-67
2022/01/03 03:00:04;;;;;;;;;;;22.80;45.50;;;;;;1544159;77;1610;-69
2022/01/03 03:02:06;;;;;;;;;;;22.90;45.70;;;;;;1545463;77;829;-69
2022/01/03 03:04:08;;;;;;;;;;;22.90;45.70;;;;;;1545296;77;1939;-67
2022/01/03 03:06:24;;;;;;;;;;;22.90;45.70;;;;;;1525850;76;807;-67
2022/01/03 03:08:20;;;;;;;;;;;22.90;45.70;;;;;;1540774;74;2111;-68
2022/01/03 03:10:22;;;;;;;;;;;22.90;45.70;;;;;;1543025;76;728;-67
2022/01/03 03:12:24;;;;;;;;;;;22.90;45.70;;;;;;1541716;77;783;-66
2022/01/03 03:14:26;;;;;;;;;;;22.90;45.60;;;;;;1541850;77;738;-67
2022/01/03 03:16:28;;;;;;;;;;;23.00;45.60;;;;;;1540659;76;1219;-67
2022/01/03 03:18:30;;;;;;;;;;;22.90;45.60;;;;;;1516289;77;783;-67
2022/01/03 03:20:32;;;;;;;;;;;22.90;45.60;;;;;;1516066;78;717;-67
2022/01/03 03:22:34;;;;;;;;;;;23.00;45.60;;;;;;1516082;78;1902;-67
2022/01/03 03:24:36;;;;;;;;;;;23.00;45.60;;;;;;1516168;78;721;-67
2022/01/03 03:26:38;;;;;;;;;;;22.90;45.60;;;;;;1517287;76;1140;-68
2022/01/03 03:28:40;;;;;;;;;;;23.00;45.60;;;;;;1516203;78;721;-67
2022/01/03 03:30:42;;;;;;;;;;;23.00;45.60;;;;;;1516085;78;729;-67
2022/01/03 03:32:44;;;;;;;;;;;23.00;45.70;;;;;;1516073;78;719;-67
2022/01/03 03:34:47;;;;;;;;;;;22.80;45.70;;;;;;1516169;78;652;-68
2022/01/03 03:36:49;;;;;;;;;;;22.70;46.10;;;;;;1517293;76;1174;-68
2022/01/03 03:38:50;;;;;;;;;;;22.60;46.40;;;;;;1522767;77;711;-68
2022/01/03 03:40:56;;;;;;;;;;;22.50;46.80;;;;;;1540309;77;732;-68
2022/01/03 03:42:58;;;;;;;;;;;22.50;47.10;;;;;;1540231;77;1943;-67
2022/01/03 03:45:00;;;;;;;;;;;22.50;47.40;;;;;;1529633;76;720;-67
2022/01/03 03:47:03;;;;;;;;;;;22.50;47.60;;;;;;1516036;78;1175;-68
2022/01/03 03:49:06;;;;;;;;;;;22.40;47.70;;;;;;1517395;76;721;-67
2022/01/03 03:51:08;;;;;;;;;;;22.40;47.80;;;;;;1516074;77;1490;-69
2022/01/03 03:53:10;;;;;;;;;;;22.40;47.80;;;;;;1517064;77;708;-68
2022/01/03 03:55:12;;;;;;;;;;;22.30;47.90;;;;;;1542020;76;700;-68
2022/01/03 03:57:14;;;;;;;;;;;22.40;48.00;;;;;;1549909;75;1146;-68
2022/01/03 03:59:16;;;;;;;;;;;22.40;48.10;;;;;;1540201;77;705;-68
2022/01/03 04:01:17;;;;;;;;;;;22.30;48.10;;;;;;1540202;77;671;-67
2022/01/03 04:03:19;;;;;;;;;;;22.40;48.10;;;;;;1540185;77;1951;-67
2022/01/03 04:05:21;;;;;;;;;;;22.40;48.20;;;;;;1538993;76;762;-67
2022/01/03 04:07:23;;;;;;;;;;;22.40;48.10;;;;;;1540222;76;1079;-67
2022/01/03 04:09:25;;;;;;;;;;;22.40;48.30;;;;;;1540359;77;660;-67
2022/01/03 04:11:27;;;;;;;;;;;22.40;48.30;;;;;;1540336;76;779;-68
2022/01/03 04:13:29;;;;;;;;;;;22.40;48.20;;;;;;1548790;76;699;-68
2022/01/03 04:15:30;;;;;;;;;;;22.50;48.20;;;;;;1534104;76;727;-68
2022/01/03 04:17:32;;;;;;;;;;;22.40;48.20;;;;;;1516136;77;1145;-68
2022/01/03 04:19:34;;;;;;;;;;;22.50;48.40;;;;;;1516293;77;714;-67
2022/01/03 04:21:37;;;;;;;;;;;22.40;48.20;;;;;;1516132;78;710;-67
2022/01/03 04:23:39;;;;;;;;;;;22.50;48.30;;;;;;1515888;77;1909;-67
2022/01/03 04:25:41;;;;;;;;;;;22.50;48.30;;;;;;1516844;76;701;-67
2022/01/03 04:27:43;;;;;;;;;;;22.50;48.30;;;;;;1516164;78;1148;-67
2022/01/03 04:29:44;;;;;;;;;;;22.50;48.20;;;;;;1516027;78;749;-67
2022/01/03 04:31:46;;;;;;;;;;;22.60;48.10;;;;;;1562005;76;692;-66
2022/01/03 04:33:48;;;;;;;;;;;22.60;48.00;;;;;;1551257;74;762;-67
2022/01/03 04:35:50;;;;;;;;;;;22.60;48.00;;;;;;1516039;77;673;-67
2022/01/03 04:37:52;;;;;;;;;;;22.60;48.10;;;;;;1516046;78;1092;-67
2022/01/03 04:39:54;;;;;;;;;;;22.60;48.10;;;;;;1535331;77;671;-68
2022/01/03 04:41:59;;;;;;;;;;;22.60;48.00;;;;;;1540349;77;728;-65
2022/01/03 04:44:05;;;;;;;;;;;22.60;48.00;;;;;;1521568;76;1929;-67
2022/01/03 04:46:05;;;;;;;;;;;22.60;48.00;;;;;;1515574;77;904;-67
2022/01/03 04:48:07;;;;;;;;;;;22.60;48.00;;;;;;1517287;76;1157;-68
2022/01/03 04:50:09;;;;;;;;;;;22.60;47.90;;;;;;1516040;78;706;-67
2022/01/03 04:52:10;;;;;;;;;;;22.70;48.00;;;;;;1516059;78;753;-67
2022/01/03 04:54:12;;;;;;;;;;;22.70;48.00;;;;;;1516181;78;694;-67
2022/01/03 04:56:14;;;;;;;;;;;22.60;47.90;;;;;;1517181;76;798;-68
2022/01/03 04:58:16;;;;;;;;;;;22.70;48.00;;;;;;1516135;78;1084;-67
2022/01/03 05:00:18;;;;;;;;;;;22.70;47.90;;;;;;1515973;78;739;-68
2022/01/03 05:02:20;;;;;;;;;;;22.70;47.90;;;;;;1516049;78;685;-68
2022/01/03 05:04:22;;;;;;;;;;;22.60;48.10;;;;;;1521838;76;1933;-69
2022/01/03 05:06:24;;;;;;;;;;;22.60;48.10;;;;;;1534213;75;1159;-69
2022/01/03 05:08:25;;;;;;;;;;;22.70;48.10;;;;;;1568020;76;771;-69
2022/01/03 05:10:27;;;;;;;;;;;22.70;48.10;;;;;;1568058;76;700;-67
2022/01/03 05:12:29;;;;;;;;;;;22.70;48.10;;;;;;1568003;76;704;-68
2022/01/03 05:14:31;;;;;;;;;;;22.70;48.10;;;;;;1559177;76;686;-68
2022/01/03 05:16:33;;;;;;;;;;;22.70;48.10;;;;;;1515911;78;1250;-68
2022/01/03 05:18:35;;;;;;;;;;;22.70;48.10;;;;;;1517414;76;649;-69
2022/01/03 05:20:37;;;;;;;;;;;22.70;48.10;;;;;;1516121;78;745;-68
2022/01/03 05:22:39;;;;;;;;;;;22.70;48.20;;;;;;1515932;78;729;-67
2022/01/03 05:24:41;;;;;;;;;;;22.70;48.10;;;;;;1516016;78;1933;-67
2022/01/03 05:26:43;;;;;;;;;;;22.70;48.10;;;;;;1515952;78;1097;-66
2022/01/03 05:28:47;;;;;;;;;;;22.80;48.10;;;;;;1516426;77;697;-67
2022/01/03 05:30:48;;;;;;;;;;;22.80;48.00;;;;;;1515925;78;1170;-68
2022/01/03 05:32:50;;;;;;;;;;;22.80;48.10;;;;;;1516009;78;667;-68
2022/01/03 05:34:52;;;;;;;;;;;22.80;48.10;;;;;;1516047;78;772;-68
2022/01/03 05:36:54;;;;;;;;;;;22.70;48.00;;;;;;1517207;76;1164;-69
2022/01/03 05:38:55;;;;;;;;;;;22.70;48.00;;;;;;1523565;76;721;-68
2022/01/03 05:40:57;;;;;;;;;;;22.80;48.00;;;;;;1540345;77;791;-68
2022/01/03 05:42:59;;;;;;;;;;;22.70;48.10;;;;;;1519315;76;712;-68
2022/01/03 05:45:02;;;;;;;;;;;22.80;48.10;;;;;;1515936;78;1934;-68
2022/01/03 05:47:04;;;;;;;;;;;22.80;48.10;;;;;;1515991;78;1177;-68
2022/01/03 05:49:08;;;;;;;;;;;22.70;48.10;;;;;;1517210;76;745;-69
2022/01/03 05:51:09;;;;;;;;;;;22.80;48.10;;;;;;1516074;78;577;-68
2022/01/03 05:53:11;;;;;;;;;;;22.80;48.10;;;;;;1516018;78;713;-69
2022/01/03 05:55:13;;;;;;;;;;;22.80;48.10;;;;;;1516155;78;709;-69
2022/01/03 05:57:15;;;;;;;;;;;22.80;48.10;;;;;;1516060;78;1137;-69
2022/01/03 05:59:17;;;;;;;;;;;22.80;48.10;;;;;;1517195;76;686;-69
2022/01/03 06:01:23;;;;;;;;;;;22.80;48.10;;;;;;1516069;78;694;-67
2022/01/03 06:03:26;;;;;;;;;;;22.70;48.10;;;;;;1515939;78;770;-67
2022/01/03 06:07:41;;;;;;;;;;;22.90;48.10;;;;;;1560555;75;1485;-67
2022/01/03 06:09:43;;;;;;;;;;;22.80;48.00;;;;;;1567981;76;783;-67
2022/01/03 06:11:45;;;;;;;;;;;22.80;48.10;;;;;;1568111;76;772;-67
2022/01/03 06:13:46;;;;;;;;;;;22.80;48.10;;;;;;1559854;75;673;-66
2022/01/03 06:15:48;;;;;;;;;;;22.80;48.10;;;;;;1516014;78;703;-67
2022/01/03 06:17:50;;;;;;;;;;;22.90;48.10;;;;;;1516094;78;1093;-67
2022/01/03 06:19:52;;;;;;;;;;;22.80;48.00;;;;;;1517240;76;564;-67
2022/01/03 06:21:54;;;;;;;;;;;22.80;48.00;;;;;;1516170;78;721;-66
2022/01/03 06:23:56;;;;;;;;;;;22.80;48.00;;;;;;1516116;78;1929;-66
2022/01/03 06:25:58;;;;;;;;;;;22.90;48.10;;;;;;1515955;77;707;-66
2022/01/03 06:28:00;;;;;;;;;;;22.90;48.10;;;;;;1517475;76;1121;-67
2022/01/03 06:30:02;;;;;;;;;;;22.80;47.90;;;;;;1515938;78;763;-66
2022/01/03 06:32:04;;;;;;;;;;;22.90;48.10;;;;;;1516137;78;815;-66
2022/01/03 06:34:06;;;;;;;;;;;22.90;48.10;;;;;;1516155;78;709;-67
2022/01/03 06:36:08;;;;;;;;;;;22.90;48.10;;;;;;1517232;76;623;-66
2022/01/03 06:38:10;;;;;;;;;;;22.90;48.10;;;;;;1516198;78;1096;-68
2022/01/03 06:40:12;;;;;;;;;;;22.90;48.10;;;;;;1538802;77;829;-68
2022/01/03 06:42:13;;;;;;;;;;;22.90;48.10;;;;;;1540299;76;948;-67
2022/01/03 06:44:15;;;;;;;;;;;22.90;48.20;;;;;;1526962;76;1937;-67
2022/01/03 06:46:17;;;;;;;;;;;22.90;48.10;;;;;;1516015;78;682;-68
2022/01/03 06:48:19;;;;;;;;;;;22.90;48.00;;;;;;1517279;76;1211;-69
2022/01/03 06:50:21;;;;;;;;;;;22.90;47.90;;;;;;1516195;78;710;-69
2022/01/03 06:52:23;;;;;;;;;;;22.90;48.00;;;;;;1516074;78;667;-69
2022/01/03 06:54:25;;;;;;;;;;;22.90;48.00;;;;;;1516093;78;797;-69
2022/01/03 06:56:27;;;;;;;;;;;22.90;47.90;;;;;;1515864;78;1127;-68
2022/01/03 06:58:29;;;;;;;;;;;22.90;48.00;;;;;;1516438;77;713;-68
2022/01/03 07:00:30;;;;;;;;;;;23.00;48.00;;;;;;1516045;78;725;-65
2022/01/03 07:02:32;;;;;;;;;;;22.90;47.90;;;;;;1515986;77;769;-68
2022/01/03 07:04:34;;;;;;;;;;;23.00;47.90;;;;;;1527248;76;1903;-67
2022/01/03 07:06:36;;;;;;;;;;;22.90;47.80;;;;;;1563207;75;1090;-68
2022/01/03 07:08:39;;;;;;;;;;;23.00;47.80;;;;;;1516130;78;648;-69
2022/01/03 07:10:41;;;;;;;;;;;23.00;47.80;;;;;;1516059;78;854;-68
2022/01/03 07:12:42;;;;;;;;;;;23.00;47.80;;;;;;1516047;77;694;-68
2022/01/03 07:19:08;;;;;;;;;;;23.00;47.80;;;;;;1527235;76;1683;-69
2022/01/03 07:21:11;;;;;;;;;;;23.00;47.90;;;;;;1516051;78;786;-68
2022/01/03 07:23:13;;;;;;;;;;;23.00;47.80;;;;;;1515977;78;786;-69
2022/01/03 07:25:15;;;;;;;;;;;23.00;47.80;;;;;;1515953;78;2161;-67
2022/01/03 07:27:16;;;;;;;;;;;23.00;47.80;;;;;;1517394;76;1135;-68
2022/01/03 07:29:18;;;;;;;;;;;23.00;47.80;;;;;;1515995;78;697;-68
2022/01/03 07:31:20;;;;;;;;;;;23.00;47.80;;;;;;1516187;78;721;-68
2022/01/03 07:33:22;;;;;;;;;;;23.00;47.80;;;;;;1516012;78;705;-68
2022/01/03 07:35:24;;;;;;;;;;;23.00;47.70;;;;;;1516259;77;844;-67
2022/01/03 07:37:26;;;;;;;;;;;23.00;47.70;;;;;;1516145;78;1133;-68
2022/01/03 07:39:30;;;;;;;;;;;23.00;47.60;;;;;;1529838;77;741;-69
2022/01/03 07:41:31;;;;;;;;;;;23.00;47.70;;;;;;1527629;76;994;-71
2022/01/03 07:43:33;;;;;;;;;;;23.00;47.70;;;;;;1535492;77;716;-68
2022/01/03 07:45:35;;;;;;;;;;;23.00;47.90;;;;;;1528729;77;1937;-68
2022/01/03 07:47:37;;;;;;;;;;;23.10;48.10;;;;;;1541737;77;1270;-68
2022/01/03 07:49:39;;;;;;;;;;;23.00;48.00;;;;;;1520794;76;672;-68
2022/01/03 07:51:41;;;;;;;;;;;23.10;48.10;;;;;;1516201;78;733;-69
2022/01/03 07:53:42;;;;;;;;;;;23.10;48.20;;;;;;1519837;77;706;-68
2022/01/03 07:55:44;;;;;;;;;;;23.00;48.10;;;;;;1523580;77;747;-67
2022/01/03 07:57:46;;;;;;;;;;;23.10;48.40;;;;;;1527371;76;1140;-68
2022/01/03 07:59:48;;;;;;;;;;;23.10;48.40;;;;;;1521299;77;713;-68
2022/01/03 08:01:50;;;;;;;;;;;23.00;48.20;;;;;;1520281;77;771;-68
2022/01/03 08:03:52;;;;;;;;;;;23.00;48.30;;;;;;1524741;77;720;-68
2022/01/03 08:05:54;;;;;;;;;;;23.10;48.40;;;;;;1530287;76;1976;-68
2022/01/03 08:07:56;;;;;;;;;;;23.10;48.50;;;;;;1519906;76;1164;-70
2022/01/03 08:09:58;;;;;;;;;;;23.10;48.40;;;;;;1521697;77;795;-68
2022/01/03 08:12:00;;;;;;;;;;;23.10;48.40;;;;;;1522457;77;748;-68
2022/01/03 08:14:02;;;;;;;;;;;23.10;48.40;;;;;;1519796;76;803;-68
2022/01/03 08:16:04;;;;;;;;;;;23.10;48.40;;;;;;1525040;76;724;-68
2022/01/03 08:18:06;;;;;;;;;;;23.10;48.40;;;;;;1525015;76;1155;-69
2022/01/03 08:20:08;;;;;;;;;;;23.10;48.40;;;;;;1519036;77;737;-67
2022/01/03 08:22:10;;;;;;;;;;;23.10;48.40;;;;;;1519905;77;869;-69
2022/01/03 08:24:12;;;;;;;;;;;23.10;48.40;;;;;;1528211;77;763;-68
2022/01/03 08:26:14;;;;;;;;;;;23.10;48.40;;;;;;1535833;77;1956;-69
2022/01/03 08:28:16;;;;;;;;;;;23.10;48.40;;;;;;1532536;76;1068;-70
2022/01/03 08:30:18;;;;;;;;;;;23.10;48.40;;;;;;1533508;77;732;-68
2022/01/03 08:32:20;;;;;;;;;;;23.10;48.40;;;;;;1516078;77;664;-68
2022/01/03 08:34:21;;;;;;;;;;;23.10;48.30;;;;;;1515977;77;720;-68
2022/01/03 08:36:23;;;;;;;;;;;23.10;48.30;;;;;;1517221;76;1164;-68
2022/01/03 08:38:25;;;;;;;;;;;23.10;48.30;;;;;;1517312;77;751;-67
2022/01/03 08:40:27;;;;;;;;;;;23.20;48.30;;;;;;1540131;77;763;-69
2022/01/03 08:42:29;;;;;;;;;;;23.20;48.40;;;;;;1541295;77;730;-67
2022/01/03 08:44:31;;;;;;;;;;;23.20;48.40;;;;;;1534057;77;1937;-68
2022/01/03 08:46:33;;;;;;;;;;;23.20;48.40;;;;;;1528486;76;1159;-68
2022/01/03 08:48:35;;;;;;;;;;;23.10;48.40;;;;;;1527509;76;709;-68
2022/01/03 08:50:37;;;;;;;;;;;23.20;48.40;;;;;;1535244;77;813;-68
2022/01/03 08:52:39;;;;;;;;;;;23.20;48.40;;;;;;1528819;77;732;-68
2022/01/03 08:54:41;;;;;;;;;;;23.20;48.40;;;;;;1541707;77;652;-68
2022/01/03 08:56:43;;;;;;;;;;;23.20;48.50;;;;;;1541633;77;1186;-68
2022/01/03 08:58:44;;;;;;;;;;;23.20;48.50;;;;;;1527287;76;720;-68
2022/01/03 09:00:46;;;;;;;;;;;23.20;48.60;;;;;;1515943;78;706;-69
2022/01/03 09:02:48;;;;;;;;;;;23.20;48.90;;;;;;1516118;78;742;-68
2022/01/03 09:04:50;;;;;;;;;;;23.30;49.20;;;;;;1536446;77;1931;-70
2022/01/03 09:08:56;;;;;;;;;;;23.20;49.20;;;;;;1634476;73;546;-72
2022/01/03 09:10:58;;;;;;;;;;;23.20;49.20;;;;;;1664129;71;1168;-72
2022/01/03 09:13:00;;;;;;;;;;;23.20;49.30;;;;;;1666785;71;631;-72
2022/01/03 09:15:02;;;;;;;;;;;23.20;49.30;;;;;;1664869;70;795;-73
2022/01/03 09:17:04;;;;;;;;;;;23.20;49.20;;;;;;1637011;72;723;-73
2022/01/03 09:19:06;;;;;;;;;;;23.20;48.90;;;;;;1639455;70;770;-73
2022/01/03 09:21:09;;;;;;;;;;;23.20;48.60;;;;;;1637134;72;1165;-72
2022/01/03 09:23:16;;;;;;;;;;;23.20;48.30;;;;;;1637058;72;782;-73
2022/01/03 09:29:40;;;;;;;;;;;23.20;47.80;;;;;;1666860;71;1643;-72
2022/01/03 09:31:42;;;;;;;;;;;23.20;47.60;;;;;;1667023;71;656;-73
2022/01/03 09:33:44;;;;;;;;;;;23.20;47.60;;;;;;1666854;71;729;-71
2022/01/03 09:35:46;;;;;;;;;;;23.20;47.40;;;;;;1641377;70;780;-72
2022/01/03 09:37:48;;;;;;;;;;;23.20;47.30;;;;;;1637357;72;707;-72
2022/01/03 09:39:50;;;;;;;;;;;23.20;47.30;;;;;;1659661;71;1131;-72
2022/01/03 09:41:56;;;;;;;;;;;23.20;47.20;;;;;;1664764;71;788;-73
2022/01/03 09:44:02;;;;;;;;;;;23.20;47.20;;;;;;1661839;70;1783;-73
2022/01/03 09:46:04;;;;;;;;;;;23.20;47.20;;;;;;1666753;71;1938;-73
2022/01/03 09:48:07;;;;;;;;;;;23.20;47.20;;;;;;1666329;70;780;-72
2022/01/03 09:50:09;;;;;;;;;;;23.20;47.10;;;;;;1636993;72;1135;-72
2022/01/03 09:52:11;;;;;;;;;;;23.20;47.10;;;;;;1637175;72;722;-73
2022/01/03 09:54:20;;;;;;;;;;;23.20;47.10;;;;;;1637273;72;705;-73
2022/01/03 09:56:17;;;;;;;;;;;23.20;47.10;;;;;;1660406;71;1641;-72
2022/01/03 09:58:18;;;;;;;;;;;23.20;47.00;;;;;;1667039;71;778;-72
2022/01/03 10:00:22;;;;;;;;;;;23.20;47.10;;;;;;1655105;70;1102;-72
2022/01/03 10:02:24;;;;;;;;;;;23.10;47.00;;;;;;1661560;71;733;-73
2022/01/03 10:04:26;;;;;;;;;;;23.10;46.90;;;;;;1665634;71;788;-73
2022/01/03 10:06:28;;;;;;;;;;;23.20;47.00;;;;;;1665537;71;1941;-72
2022/01/03 10:08:30;;;;;;;;;;;23.20;46.90;;;;;;1661308;71;749;-72
2022/01/03 10:10:32;;;;;;;;;;;23.20;47.00;;;;;;1655369;70;1129;-73
2022/01/03 10:12:34;;;;;;;;;;;23.20;46.90;;;;;;1655941;71;793;-72
2022/01/03 10:14:36;;;;;;;;;;;23.20;46.90;;;;;;1657980;72;775;-73
2022/01/03 10:16:38;;;;;;;;;;;23.20;46.90;;;;;;1657615;72;788;-73
2022/01/03 10:18:40;;;;;;;;;;;23.10;46.90;;;;;;1656719;70;813;-73
2022/01/03 10:20:42;;;;;;;;;;;23.10;46.80;;;;;;1657362;72;1108;-73
2022/01/03 10:22:44;;;;;;;;;;;23.10;46.80;;;;;;1655804;70;742;-73
2022/01/03 10:24:45;;;;;;;;;;;23.10;46.80;;;;;;1658417;72;740;-72
2022/01/03 10:26:54;;;;;;;;;;;23.20;46.90;;;;;;1658527;72;1924;-73
2022/01/03 10:28:57;;;;;;;;;;;23.20;46.90;;;;;;1654592;72;774;-74
2022/01/03 10:30:59;;;;;;;;;;;23.20;47.00;;;;;;1653386;70;2060;-75
2022/01/03 10:33:03;;;;;;;;;;;23.40;46.00;;;;;;1656919;70;751;-74
2022/01/03 10:35:15;;;;;;;;;;;23.60;44.40;;;;;;1657836;72;707;-73
2022/01/03 10:37:17;;;;;;;;;;;23.80;43.30;;;;;;1654778;72;785;-72
2022/01/03 10:39:21;;;;;;;;;;;23.70;41.10;;;;;;1656096;70;1138;-73
2022/01/03 10:41:24;;;;;;;;;;;23.60;41.40;;;;;;1657701;72;689;-73
2022/01/03 10:43:26;;;;;;;;;;;23.60;41.90;;;;;;1656508;72;765;-72
2022/01/03 10:45:29;;;;;;;;;;;23.50;42.20;;;;;;1658905;72;1934;-76
2022/01/03 10:47:32;;;;;;;;;;;23.40;42.40;;;;;;1652894;70;704;-74
2022/01/03 10:49:33;;;;;;;;;;;23.40;42.60;;;;;;1654001;70;1109;-76
2022/01/03 10:51:35;;;;;;;;;;;23.50;42.60;;;;;;1657507;72;794;-71
2022/01/03 10:53:38;;;;;;;;;;;23.50;42.50;;;;;;1659252;71;698;-73
2022/01/03 10:55:40;;;;;;;;;;;23.60;42.10;;;;;;1629267;73;740;-72
2022/01/03 10:57:55;;;;;;;;;;;23.60;41.20;;;;;;1632538;70;758;-74
2022/01/03 10:59:58;;;;;;;;;;;23.60;41.40;;;;;;1655484;72;1179;-74
2022/01/03 11:02:02;;;;;;;;;;;23.60;41.10;;;;;;1640069;72;1681;-71
2022/01/03 11:04:04;;;;;;;;;;;23.60;41.20;;;;;;1657891;72;801;-72
2022/01/03 11:06:21;;;;;;;;;;;23.60;41.20;;;;;;1658826;70;1916;-73
2022/01/03 11:10:44;;;;;;;;;;;23.50;41.20;;;;;;1648914;70;1607;-73
2022/01/03 11:12:46;;;;;;;;;;;23.60;41.00;;;;;;1655135;71;787;-72
2022/01/03 11:14:48;;;;;;;;;;;23.60;40.70;;;;;;1658387;72;773;-74
2022/01/03 11:16:50;;;;;;;;;;;23.60;40.70;;;;;;1658484;72;846;-76
2022/01/03 11:18:52;;;;;;;;;;;23.60;40.70;;;;;;1658175;70;782;-73
2022/01/03 11:21:16;;;;;;;;;;;23.60;40.50;;;;;;1657199;72;1124;-73
2022/01/03 11:23:21;;;;;;;;;;;23.60;40.50;;;;;;1657740;72;823;-73
2022/01/03 11:25:33;;;;;;;;;;;23.60;40.60;;;;;;1653790;72;1911;-73
2022/01/03 11:27:38;;;;;;;;;;;23.50;40.50;;;;;;1653504;70;729;-77
2022/01/03 11:29:39;;;;;;;;;;;23.60;40.60;;;;;;1657691;71;1462;-75
2022/01/03 11:31:41;;;;;;;;;;;23.50;40.60;;;;;;1653077;72;797;-75
2022/01/03 11:33:43;;;;;;;;;;;23.50;40.60;;;;;;1658130;72;703;-73
2022/01/03 11:35:48;;;;;;;;;;;23.50;40.60;;;;;;1658099;72;741;-74
2022/01/03 11:37:50;;;;;;;;;;;23.40;40.50;;;;;;1657657;72;725;-74
2022/01/03 11:39:52;;;;;;;;;;;23.50;40.60;;;;;;1656345;71;1133;-74
2022/01/03 11:41:55;;;;;;;;;;;23.40;40.40;;;;;;1658263;72;1033;-74
2022/01/03 11:43:57;;;;;;;;;;;23.40;40.60;;;;;;1657904;72;767;-73
2022/01/03 11:45:59;;;;;;;;;;;23.40;40.50;;;;;;1658172;70;1922;-74
2022/01/03 11:48:02;;;;;;;;;;;23.30;40.50;;;;;;1658305;70;827;-77
2022/01/03 11:50:05;;;;;;;;;;;23.30;40.60;;;;;;1653547;72;2253;-74
2022/01/03 11:52:12;;;;;;;;;;;23.30;40.50;;;;;;1657661;72;812;-74
2022/01/03 11:54:13;;;;;;;;;;;23.30;40.50;;;;;;1656864;71;1459;-74
2022/01/03 11:56:15;;;;;;;;;;;23.30;40.60;;;;;;1657116;71;1984;-73
2022/01/03 11:58:30;;;;;;;;;;;23.30;40.50;;;;;;1657937;70;750;-73
2022/01/03 12:05:04;;;;;;;;;;;23.20;40.50;;;;;;1656000;70;736;-73
2022/01/03 12:07:07;;;;;;;;;;;23.20;40.60;;;;;;1653830;72;1938;-73
2022/01/03 12:09:10;;;;;;;;;;;23.20;40.50;;;;;;1660831;70;801;-76
2022/01/03 12:11:19;;;;;;;;;;;23.20;40.50;;;;;;1665330;71;723;-74
2022/01/03 12:13:21;;;;;;;;;;;23.20;40.50;;;;;;1663479;70;731;-75
2022/01/03 12:15:30;;;;;;;;;;;23.10;40.50;;;;;;1630738;71;1285;-72
2022/01/03 12:17:42;;;;;;;;;;;23.10;40.50;;;;;;1664094;70;778;-75
2022/01/03 12:19:46;;;;;;;;;;;23.10;40.50;;;;;;1636605;70;1509;-74
2022/01/03 12:21:53;;;;;;;;;;;23.10;40.50;;;;;;1664279;70;1370;-76
2022/01/03 12:23:55;;;;;;;;;;;23.10;40.50;;;;;;1665128;71;743;-73
2022/01/03 12:26:01;;;;;;;;;;;23.10;40.70;;;;;;1665474;71;1934;-73
2022/01/03 12:28:03;;;;;;;;;;;23.10;40.90;;;;;;1643534;70;1806;-74
2022/01/03 12:30:09;;;;;;;;;;;23.10;41.00;;;;;;1659281;71;1118;-72
2022/01/03 12:32:12;;;;;;;;;;;23.00;41.10;;;;;;1665057;71;666;-73
2022/01/03 12:34:15;;;;;;;;;;;23.10;41.40;;;;;;1664977;71;761;-73